Janie — WDD4142 — position and weather

sailwx.info

Track history (hours):
 
Tides and Currents Weather Stations Pressure Air Temp Water Temp Dewpoint Dewpoint Depression Visibility Wind Speed Wind Dir Waves Ship Positions

Janie

Owner: Offshore Liftboats, LLC, Cut Off, LA. More information available from US FCC via Universal Licensing System and Coast Guard Vessel Documentation Center.

Last reported at 2018-Feb-12 15:46 UTC. Time now 2018-Feb-17 21:46 UTC.
Position N 29°48' W 093°21'.

Length 38 m; draft 2.7 m.

Type: Ship. MMSI: 367140730.

Date/timePositionNaut miles runAvg speedWind from/ knotsBaromVisibWave heightAir tempDewpointWater temp
2018-Feb-12 15:46N 29°48' W 093°21'0 0.0
2018-Feb-12 15:17N 29°48' W 093°21'0 0.0
2018-Feb-11 14:04N 29°48' W 093°21'0 0.0
2018-Feb-11 13:55N 29°48' W 093°21'0 0.0
2018-Feb-11 13:02N 29°48' W 093°21'0 0.2
2018-Feb-11 12:59N 29°48' W 093°21'0 0.0
2018-Feb-11 03:06N 29°48' W 093°21'0 0.0
2018-Feb-11 02:36N 29°48' W 093°21'0 0.0
2018-Feb-10 23:46N 29°48' W 093°21'2 3.1
2018-Feb-10 23:16N 29°46' W 093°21'0 0.0
2018-Feb-10 22:54N 29°46' W 093°21'0 0.0
2018-Feb-10 22:29N 29°46' W 093°21'0 0.0
2018-Feb-10 21:35N 29°46' W 093°21'0 0.0
2018-Feb-10 21:29N 29°46' W 093°21'1 1.9
2018-Feb-10 20:51N 29°48' W 093°21'2 4.1
2018-Feb-10 20:26N 29°49' W 093°21'0 0.3
2018-Feb-10 18:59N 29°49' W 093°20'0 0.0
2018-Feb-10 18:25N 29°49' W 093°20'0 0.0
2018-Feb-10 18:00N 29°49' W 093°20'0 0.0
2018-Feb-10 17:26N 29°49' W 093°20'0 0.3
2018-Feb-10 16:59N 29°49' W 093°20'11 1.6
2018-Feb-10 10:09N 29°40' W 093°28'0 0.0
2018-Feb-10 09:59N 29°40' W 093°28'0 0.0
2018-Feb-10 09:29N 29°40' W 093°28'0 0.0
2018-Feb-10 09:00N 29°40' W 093°28'6 0.7
2018-Feb-10 01:01N 29°37' W 093°33'1 5.5
2018-Feb-10 00:55N 29°37' W 093°34'2 5.6
2018-Feb-10 00:29N 29°36' W 093°36'3 5.8
2018-Feb-10 00:00N 29°35' W 093°39'3 6.0
2018-Feb-09 23:30N 29°33' W 093°42'3 5.7
2018-Feb-09 23:00N 29°33' W 093°45'1 5.5
2018-Feb-09 22:46N 29°32' W 093°46'1 5.7
2018-Feb-09 22:30N 29°31' W 093°48'25 3.1
2018-Feb-09 14:30N 29°19' W 094°13'0 0.0
2018-Feb-09 14:00N 29°19' W 094°13'0 0.0
2018-Feb-09 13:30N 29°19' W 094°13'0 0.0
2018-Feb-09 13:00N 29°19' W 094°13'0 0.0
2018-Feb-09 08:30N 29°19' W 094°13'0 0.0
2018-Feb-09 07:00N 29°19' W 094°13'0 0.0
2018-Feb-09 06:30N 29°19' W 094°13'0 0.0
2018-Feb-09 04:30N 29°19' W 094°13'0 0.0
2018-Feb-08 15:00N 29°19' W 094°13'0 0.0
2018-Feb-08 14:00N 29°19' W 094°13'0 0.0
2018-Feb-08 10:30N 29°19' W 094°13'0 0.0
2018-Feb-08 01:03N 29°19' W 094°13'0 0.1
2018-Feb-08 00:58N 29°19' W 094°13'0 0.0
2018-Feb-08 00:19N 29°19' W 094°13'0 0.0
2018-Feb-07 23:57N 29°19' W 094°13'0 0.0
2018-Feb-07 23:24N 29°19' W 094°13'0 0.0
2018-Feb-07 23:00N 29°19' W 094°13'0 0.0
2018-Feb-07 22:30N 29°19' W 094°13'0 0.0
2018-Feb-07 08:51N 29°19' W 094°13'0 0.0
2018-Feb-07 08:29N 29°19' W 094°13'0 0.0
2018-Feb-07 07:51N 29°19' W 094°13'0 0.0
2018-Feb-07 07:09N 29°19' W 094°13'0 0.0
2018-Feb-07 06:44N 29°19' W 094°13'0 0.0
2018-Feb-07 06:27N 29°19' W 094°13'0 0.0
2018-Feb-07 05:52N 29°19' W 094°13'0 0.0
2018-Feb-07 05:30N 29°19' W 094°13'0 0.0
2018-Feb-07 05:00N 29°19' W 094°13'0 0.0
2018-Feb-07 04:25N 29°19' W 094°13'0 0.0
2018-Feb-07 01:13N 29°19' W 094°13'0 0.0
2018-Feb-07 01:00N 29°19' W 094°13'0 0.0
2018-Feb-07 00:08N 29°19' W 094°13'0 0.0
2018-Feb-07 00:00N 29°19' W 094°13'0 0.0
2018-Feb-06 23:20N 29°19' W 094°13'0 0.0
2018-Feb-06 22:09N 29°19' W 094°13'0 0.0
2018-Feb-06 22:00N 29°19' W 094°13'0 0.0
2018-Feb-06 21:26N 29°19' W 094°13'0 0.0
2018-Feb-06 20:55N 29°19' W 094°13'0 0.0
2018-Feb-06 20:30N 29°19' W 094°13'0 0.0
2018-Feb-06 19:55N 29°19' W 094°13'0 0.0
2018-Feb-06 19:29N 29°19' W 094°13'0 0.0
2018-Feb-06 19:00N 29°19' W 094°13'0 0.0
2018-Feb-06 18:30N 29°19' W 094°13'0 0.0
2018-Feb-06 18:00N 29°19' W 094°13'0 0.0
2018-Feb-06 17:29N 29°19' W 094°13'0 0.0
2018-Feb-06 17:00N 29°19' W 094°13'0 0.0
2018-Feb-06 09:25N 29°19' W 094°13'0 0.0
2018-Feb-06 01:45N 29°19' W 094°13'0 0.0
2018-Feb-06 01:27N 29°19' W 094°13'0 0.0
2018-Feb-06 01:00N 29°19' W 094°13'0 0.0
2018-Feb-05 23:39N 29°19' W 094°13'0 0.0
2018-Feb-05 23:16N 29°19' W 094°13'0 0.0
2018-Feb-05 22:57N 29°19' W 094°13'0 0.0
2018-Feb-05 22:05N 29°19' W 094°13'0 0.0
2018-Feb-05 21:45N 29°19' W 094°13'0 0.0
2018-Feb-05 21:29N 29°19' W 094°13'0 0.0
2018-Feb-05 19:48N 29°19' W 094°13'0 0.0
2018-Feb-05 19:26N 29°19' W 094°13'0 0.0
2018-Feb-05 19:00N 29°19' W 094°13'0 0.0
2018-Feb-05 18:30N 29°19' W 094°13'0 0.0
2018-Feb-05 17:53N 29°19' W 094°13'0 0.0
2018-Feb-05 17:30N 29°19' W 094°13'0 0.0
2018-Feb-05 15:44N 29°19' W 094°13'0 0.0
2018-Feb-05 15:16N 29°19' W 094°13'0 0.0
2018-Feb-05 14:58N 29°19' W 094°13'0 0.0
2018-Feb-05 14:30N 29°19' W 094°13'0 0.0
2018-Feb-05 13:25N 29°19' W 094°13'0 0.0
2018-Feb-05 12:56N 29°19' W 094°13'0 0.0
2018-Feb-05 12:27N 29°19' W 094°13'0 0.0
2018-Feb-05 12:00N 29°19' W 094°13'0 0.0
2018-Feb-05 11:30N 29°19' W 094°13'0 0.0
2018-Feb-05 11:00N 29°19' W 094°13'0 0.0
2018-Feb-05 10:30N 29°19' W 094°13'0 0.0
2018-Feb-05 10:00N 29°19' W 094°13'0 0.0
2018-Feb-05 09:30N 29°19' W 094°13'0 0.0
2018-Feb-05 08:57N 29°19' W 094°13'0 0.0
2018-Feb-05 08:24N 29°19' W 094°13'0 0.0
2018-Feb-05 08:00N 29°19' W 094°13'0 0.0
2018-Feb-05 07:27N 29°19' W 094°13'0 0.0
2018-Feb-05 07:00N 29°19' W 094°13'0 0.0
2018-Feb-05 06:30N 29°19' W 094°13'0 0.0
2018-Feb-05 05:27N 29°19' W 094°13'0 0.0
2018-Feb-05 05:00N 29°19' W 094°13'0 0.0
2018-Feb-05 04:29N 29°19' W 094°13'0 0.0
2018-Feb-05 03:57N 29°19' W 094°13'0 0.0
2018-Feb-05 03:23N 29°19' W 094°13'0 0.0
2018-Feb-05 03:00N 29°19' W 094°13'0 0.0
2018-Feb-05 01:38N 29°19' W 094°13'0 0.0
2018-Feb-05 00:02N 29°19' W 094°13'0 0.0
2018-Feb-04 23:42N 29°19' W 094°13'0 0.0
2018-Feb-04 23:17N 29°19' W 094°13'0 0.0
2018-Feb-04 22:56N 29°19' W 094°13'0 0.0
2018-Feb-04 22:28N 29°19' W 094°13'0 0.0
2018-Feb-04 21:52N 29°19' W 094°13'0 0.0
2018-Feb-04 21:30N 29°19' W 094°13'0 0.0
2018-Feb-04 15:30N 29°19' W 094°13'0 0.0
2018-Feb-04 14:59N 29°19' W 094°13'0 0.0
2018-Feb-04 14:26N 29°19' W 094°13'0 0.0
2018-Feb-04 14:00N 29°19' W 094°13'0 0.0
2018-Feb-04 13:28N 29°19' W 094°13'0 0.0
2018-Feb-04 12:59N 29°19' W 094°13'0 0.0
2018-Feb-04 12:30N 29°19' W 094°13'0 0.0
2018-Feb-04 11:59N 29°19' W 094°13'0 0.0
2018-Feb-04 11:27N 29°19' W 094°13'0 0.0
2018-Feb-04 08:54N 29°19' W 094°13'0 0.0
2018-Feb-04 04:27N 29°19' W 094°13'0 0.0
2018-Feb-03 23:28N 29°19' W 094°13'0 0.0
2018-Feb-03 22:54N 29°19' W 094°13'0 0.0
2018-Feb-03 22:29N 29°19' W 094°13'0 0.0
2018-Feb-03 21:18N 29°19' W 094°13'0 0.0
2018-Feb-03 20:46N 29°19' W 094°13'0 0.0
2018-Feb-03 20:17N 29°19' W 094°13'0 0.0
2018-Feb-03 10:19N 29°19' W 094°13'0 0.0
2018-Feb-03 09:25N 29°19' W 094°13'0 0.0
2018-Feb-03 08:33N 29°19' W 094°13'  
Track history (hours):
 
Tides and Currents Weather Stations Pressure Air Temp Water Temp Dewpoint Dewpoint Depression Visibility Wind Speed Wind Dir Waves Ship Positions

Janie

Owner: Offshore Liftboats, LLC, Cut Off, LA. More information available from US FCC via Universal Licensing System and Coast Guard Vessel Documentation Center.

Last reported at 2018-Feb-12 15:46 UTC. Time now 2018-Feb-17 21:46 UTC.
Position N 29°48' W 093°21'.

Length 38 m; draft 2.7 m.

Type: Ship. MMSI: 367140730.

Date/timePositionNaut miles runAvg speedWind from/ knotsBaromVisibWave heightAir tempDewpointWater temp
2018-Feb-12 15:46N 29°48' W 093°21'0 0.0
2018-Feb-12 15:17N 29°48' W 093°21'0 0.0
2018-Feb-11 14:04N 29°48' W 093°21'0 0.0
2018-Feb-11 13:55N 29°48' W 093°21'0 0.0
2018-Feb-11 13:02N 29°48' W 093°21'0 0.2
2018-Feb-11 12:59N 29°48' W 093°21'0 0.0
2018-Feb-11 03:06N 29°48' W 093°21'0 0.0
2018-Feb-11 02:36N 29°48' W 093°21'0 0.0
2018-Feb-10 23:46N 29°48' W 093°21'2 3.1
2018-Feb-10 23:16N 29°46' W 093°21'0 0.0
2018-Feb-10 22:54N 29°46' W 093°21'0 0.0
2018-Feb-10 22:29N 29°46' W 093°21'0 0.0
2018-Feb-10 21:35N 29°46' W 093°21'0 0.0
2018-Feb-10 21:29N 29°46' W 093°21'1 1.9
2018-Feb-10 20:51N 29°48' W 093°21'2 4.1
2018-Feb-10 20:26N 29°49' W 093°21'0 0.3
2018-Feb-10 18:59N 29°49' W 093°20'0 0.0
2018-Feb-10 18:25N 29°49' W 093°20'0 0.0
2018-Feb-10 18:00N 29°49' W 093°20'0 0.0
2018-Feb-10 17:26N 29°49' W 093°20'0 0.3
2018-Feb-10 16:59N 29°49' W 093°20'11 1.6
2018-Feb-10 10:09N 29°40' W 093°28'0 0.0
2018-Feb-10 09:59N 29°40' W 093°28'0 0.0
2018-Feb-10 09:29N 29°40' W 093°28'0 0.0
2018-Feb-10 09:00N 29°40' W 093°28'6 0.7
2018-Feb-10 01:01N 29°37' W 093°33'1 5.5
2018-Feb-10 00:55N 29°37' W 093°34'2 5.6
2018-Feb-10 00:29N 29°36' W 093°36'3 5.8
2018-Feb-10 00:00N 29°35' W 093°39'3 6.0
2018-Feb-09 23:30N 29°33' W 093°42'3 5.7
2018-Feb-09 23:00N 29°33' W 093°45'1 5.5
2018-Feb-09 22:46N 29°32' W 093°46'1 5.7
2018-Feb-09 22:30N 29°31' W 093°48'25 3.1
2018-Feb-09 14:30N 29°19' W 094°13'0 0.0
2018-Feb-09 14:00N 29°19' W 094°13'0 0.0
2018-Feb-09 13:30N 29°19' W 094°13'0 0.0
2018-Feb-09 13:00N 29°19' W 094°13'0 0.0
2018-Feb-09 08:30N 29°19' W 094°13'0 0.0
2018-Feb-09 07:00N 29°19' W 094°13'0 0.0
2018-Feb-09 06:30N 29°19' W 094°13'0 0.0
2018-Feb-09 04:30N 29°19' W 094°13'0 0.0
2018-Feb-08 15:00N 29°19' W 094°13'0 0.0
2018-Feb-08 14:00N 29°19' W 094°13'0 0.0
2018-Feb-08 10:30N 29°19' W 094°13'0 0.0
2018-Feb-08 01:03N 29°19' W 094°13'0 0.1
2018-Feb-08 00:58N 29°19' W 094°13'0 0.0
2018-Feb-08 00:19N 29°19' W 094°13'0 0.0
2018-Feb-07 23:57N 29°19' W 094°13'0 0.0
2018-Feb-07 23:24N 29°19' W 094°13'0 0.0
2018-Feb-07 23:00N 29°19' W 094°13'0 0.0
2018-Feb-07 22:30N 29°19' W 094°13'0 0.0
2018-Feb-07 08:51N 29°19' W 094°13'0 0.0
2018-Feb-07 08:29N 29°19' W 094°13'0 0.0
2018-Feb-07 07:51N 29°19' W 094°13'0 0.0
2018-Feb-07 07:09N 29°19' W 094°13'0 0.0
2018-Feb-07 06:44N 29°19' W 094°13'0 0.0
2018-Feb-07 06:27N 29°19' W 094°13'0 0.0
2018-Feb-07 05:52N 29°19' W 094°13'0 0.0
2018-Feb-07 05:30N 29°19' W 094°13'0 0.0
2018-Feb-07 05:00N 29°19' W 094°13'0 0.0
2018-Feb-07 04:25N 29°19' W 094°13'0 0.0
2018-Feb-07 01:13N 29°19' W 094°13'0 0.0
2018-Feb-07 01:00N 29°19' W 094°13'0 0.0
2018-Feb-07 00:08N 29°19' W 094°13'0 0.0
2018-Feb-07 00:00N 29°19' W 094°13'0 0.0
2018-Feb-06 23:20N 29°19' W 094°13'0 0.0
2018-Feb-06 22:09N 29°19' W 094°13'0 0.0
2018-Feb-06 22:00N 29°19' W 094°13'0 0.0
2018-Feb-06 21:26N 29°19' W 094°13'0 0.0
2018-Feb-06 20:55N 29°19' W 094°13'0 0.0
2018-Feb-06 20:30N 29°19' W 094°13'0 0.0
2018-Feb-06 19:55N 29°19' W 094°13'0 0.0
2018-Feb-06 19:29N 29°19' W 094°13'0 0.0
2018-Feb-06 19:00N 29°19' W 094°13'0 0.0
2018-Feb-06 18:30N 29°19' W 094°13'0 0.0
2018-Feb-06 18:00N 29°19' W 094°13'0 0.0
2018-Feb-06 17:29N 29°19' W 094°13'0 0.0
2018-Feb-06 17:00N 29°19' W 094°13'0 0.0
2018-Feb-06 09:25N 29°19' W 094°13'0 0.0
2018-Feb-06 01:45N 29°19' W 094°13'0 0.0
2018-Feb-06 01:27N 29°19' W 094°13'0 0.0
2018-Feb-06 01:00N 29°19' W 094°13'0 0.0
2018-Feb-05 23:39N 29°19' W 094°13'0 0.0
2018-Feb-05 23:16N 29°19' W 094°13'0 0.0
2018-Feb-05 22:57N 29°19' W 094°13'0 0.0
2018-Feb-05 22:05N 29°19' W 094°13'0 0.0
2018-Feb-05 21:45N 29°19' W 094°13'0 0.0
2018-Feb-05 21:29N 29°19' W 094°13'0 0.0
2018-Feb-05 19:48N 29°19' W 094°13'0 0.0
2018-Feb-05 19:26N 29°19' W 094°13'0 0.0
2018-Feb-05 19:00N 29°19' W 094°13'0 0.0
2018-Feb-05 18:30N 29°19' W 094°13'0 0.0
2018-Feb-05 17:53N 29°19' W 094°13'0 0.0
2018-Feb-05 17:30N 29°19' W 094°13'0 0.0
2018-Feb-05 15:44N 29°19' W 094°13'0 0.0
2018-Feb-05 15:16N 29°19' W 094°13'0 0.0
2018-Feb-05 14:58N 29°19' W 094°13'0 0.0
2018-Feb-05 14:30N 29°19' W 094°13'0 0.0
2018-Feb-05 13:25N 29°19' W 094°13'0 0.0
2018-Feb-05 12:56N 29°19' W 094°13'0 0.0
2018-Feb-05 12:27N 29°19' W 094°13'0 0.0
2018-Feb-05 12:00N 29°19' W 094°13'0 0.0
2018-Feb-05 11:30N 29°19' W 094°13'0 0.0
2018-Feb-05 11:00N 29°19' W 094°13'0 0.0
2018-Feb-05 10:30N 29°19' W 094°13'0 0.0
2018-Feb-05 10:00N 29°19' W 094°13'0 0.0
2018-Feb-05 09:30N 29°19' W 094°13'0 0.0
2018-Feb-05 08:57N 29°19' W 094°13'0 0.0
2018-Feb-05 08:24N 29°19' W 094°13'0 0.0
2018-Feb-05 08:00N 29°19' W 094°13'0 0.0
2018-Feb-05 07:27N 29°19' W 094°13'0 0.0
2018-Feb-05 07:00N 29°19' W 094°13'0 0.0
2018-Feb-05 06:30N 29°19' W 094°13'0 0.0
2018-Feb-05 05:27N 29°19' W 094°13'0 0.0
2018-Feb-05 05:00N 29°19' W 094°13'0 0.0
2018-Feb-05 04:29N 29°19' W 094°13'0 0.0
2018-Feb-05 03:57N 29°19' W 094°13'0 0.0
2018-Feb-05 03:23N 29°19' W 094°13'0 0.0
2018-Feb-05 03:00N 29°19' W 094°13'0 0.0
2018-Feb-05 01:38N 29°19' W 094°13'0 0.0
2018-Feb-05 00:02N 29°19' W 094°13'0 0.0
2018-Feb-04 23:42N 29°19' W 094°13'0 0.0
2018-Feb-04 23:17N 29°19' W 094°13'0 0.0
2018-Feb-04 22:56N 29°19' W 094°13'0 0.0
2018-Feb-04 22:28N 29°19' W 094°13'0 0.0
2018-Feb-04 21:52N 29°19' W 094°13'0 0.0
2018-Feb-04 21:30N 29°19' W 094°13'0 0.0
2018-Feb-04 15:30N 29°19' W 094°13'0 0.0
2018-Feb-04 14:59N 29°19' W 094°13'0 0.0
2018-Feb-04 14:26N 29°19' W 094°13'0 0.0
2018-Feb-04 14:00N 29°19' W 094°13'0 0.0
2018-Feb-04 13:28N 29°19' W 094°13'0 0.0
2018-Feb-04 12:59N 29°19' W 094°13'0 0.0
2018-Feb-04 12:30N 29°19' W 094°13'0 0.0
2018-Feb-04 11:59N 29°19' W 094°13'0 0.0
2018-Feb-04 11:27N 29°19' W 094°13'0 0.0
2018-Feb-04 08:54N 29°19' W 094°13'0 0.0
2018-Feb-04 04:27N 29°19' W 094°13'0 0.0
2018-Feb-03 23:28N 29°19' W 094°13'0 0.0
2018-Feb-03 22:54N 29°19' W 094°13'0 0.0
2018-Feb-03 22:29N 29°19' W 094°13'0 0.0
2018-Feb-03 21:18N 29°19' W 094°13'0 0.0
2018-Feb-03 20:46N 29°19' W 094°13'0 0.0
2018-Feb-03 20:17N 29°19' W 094°13'0 0.0
2018-Feb-03 10:19N 29°19' W 094°13'0 0.0
2018-Feb-03 09:25N 29°19' W 094°13'0 0.0
2018-Feb-03 08:33N 29°19' W 094°13'  

Dump ship's entire track history